White Horse Beach, MA

6:42 AM EDT on July 28, 2016 (GMT -0400)
Whitehorse Beach | | Change Station

Elev 39 ft 41.93 °N, 70.56 °W | Updated 15 seconds ago

Clear
Clear
71.5 °F
Feels Like 70 °F
N
0.0
Wind Variable Wind from SSW

Today
High -- | Low -- °F
--% Chance of Precip.
Yesterday
High -- | Low -- °F
Precip. -- in
Pressure 29.91 in
Visibility 10.0 miles
Clouds Clear
Heat Index 70 °F
Dew Point 68 °F
Humidity 85%
Rainfall 0.00 in
Snow Depth Not available.
5:32 AM 8:04 PM
Waning Crescent, 33% visible
METAR KPYM 280952Z AUTO 00000KT 10SM CLR 19/18 A2991 RMK AO2 SLP127 T01890183 $
Pressure 29.91 in
Visibility 10.0 miles
Clouds Clear
Heat Index 70 °F
Dew Point 68 °F
Humidity 85%
Rainfall 0.00 in
Snow Depth Not available.
5:32 AM 8:04 PM
Waning Crescent, 33% visible
METAR KPYM 280952Z AUTO 00000KT 10SM CLR 19/18 A2991 RMK AO2 SLP127 T01890183 $

10-Day Weather Forecast

Almanac

Astronomy

Jul. 28, 2016 Rise Set
Actual Time
Civil Twilight
Nautical Twilight
Astronomical Twilight
Moon
Length of Visible Light
Length of Day
Tomorrow will be .
, % of the Moon is Illuminated

Today's Extremes

State Highs State Lows

Community

WunderPhotos

Upload Photos

1,928,082 photos uploaded!

WunderBlog® & News

Nearby

Air Quality

  Air Quality AQ Index Pollutant
Not available.

Snow Depth

Station Depth Elevation

Earthquake Activity

City Distance Mag. Time & Date
Minimum magnitude displayed is 2.5.

Coastal Water Temperatures

Place Temperature

Stations

Nearby Weather Stations

Station Location Temp. Windchill Dew Point Humidity Wind Precip. Elev Updated Type
                   

Watches & Warnings

There are currently no watches in effect.